Nearby METAR Reports

 

KBVO - Bartlesville, Oklahoma, USA
Distance from station: WNW 10mi, 16km
Updated: Thu, 23-Sep-2021 8:53pm CDT
Clear
Clear
 Wind from S
Wind: S 3 mph , 6 km/h
Temperature: 61°F , 16°C
Dew Point: 50°F , 10°C
Humidity: 68%
Barometer: 30.03 inHg , 1016.9 hPa
Clouds: Clear
Visibility: 10 miles , 16 km
2021/09/24 01:53 KBVO 240153Z AUTO 18003KT 10SM CLR 16/10 A3003 RMK AO2 SLP165 T01560100
KCFV - Coffeyville, Kansas, USA
Distance from station: NNE 31mi, 49km
Updated: Thu, 23-Sep-2021 8:52pm CDT
Clear
Clear
 Wind from SE
Wind: SE 7 mph , 11 km/h
Temperature: 66°F , 19°C
Dew Point: 45°F , 7°C
Humidity: 46%
Barometer: 30.02 inHg , 1016.6 hPa
Clouds: Clear
Visibility: 10 miles , 16 km
2021/09/24 01:52 KCFV 240152Z AUTO 14006KT 10SM CLR 19/07 A3002 RMK AO2 SLP163 T01890072
 
KIDP - Independence, Kansas, USA
Distance from station: N 32mi, 52km
Updated: Thu, 23-Sep-2021 8:55pm CDT
Clear
Clear
 Wind from SSE
Wind: SSE 6 mph , 9 km/h
Temperature: 63°F , 17°C
Dew Point: 45°F , 7°C
Humidity: 52%
Barometer: 30.03 inHg , 1016.9 hPa
Clouds: Clear
Visibility: 10 miles , 16 km
2021/09/24 01:55 KIDP 240155Z AUTO 16005KT 10SM CLR 17/07 A3003 RMK AO2 T01750075
KGCM - Claremore, Oklahoma, USA
Distance from station: SE 35mi, 56km
Updated: Thu, 23-Sep-2021 8:55pm CDT
Clear
Clear
 Wind from calm
Wind: Calm
Temperature: 63°F , 17°C
Dew Point: 41°F , 5°C
Humidity: 45%
Barometer: 30.06 inHg , 1017.9 hPa
Clouds: Clear
Visibility: 10 miles , 16 km
2021/09/24 01:55 KGCM 240155Z AUTO 00000KT 10SM CLR 17/05 A3006 RMK AO2
 
KTUL - Tulsa, Oklahoma, USA
Distance from station: S 35mi, 56km
Updated: Thu, 23-Sep-2021 8:53pm CDT
Clear
Clear
 Wind from SE
Wind: SE 7 mph , 11 km/h
Temperature: 70°F , 21°C
Dew Point: 45°F , 7°C
Humidity: 40%
Barometer: 30.03 inHg , 1016.9 hPa
Clouds: Clear
Visibility: 10 miles , 16 km
2021/09/24 01:53 KTUL 240153Z 13006KT 10SM CLR 21/07 A3003 RMK AO2 SLP165 T02060072
KRVS - Tulsa, Oklahoma, USA
Distance from station: S 46mi, 74km
Updated: Thu, 23-Sep-2021 8:53pm CDT
Clear
Clear
 Wind from calm
Wind: Calm
Temperature: 63°F , 17°C
Dew Point: 52°F , 11°C
Humidity: 68%
Barometer: 30.03 inHg , 1016.9 hPa
Clouds: Clear
Visibility: 10 miles , 16 km
2021/09/24 01:53 KRVS 240153Z 00000KT 10SM CLR 17/11 A3003 RMK AO2 SLP178 T01720106
 
KPPF - Parsons, Kansas, USA
Distance from station: NNE 48mi, 76km
Updated: Thu, 23-Sep-2021 8:52pm CDT
Clear
Clear
 Wind from SE
Wind: SE 3 mph , 6 km/h
Temperature: 64°F , 18°C
Dew Point: 48°F , 9°C
Humidity: 56%
Barometer: 30.04 inHg , 1017.3 hPa
Clouds: Clear
Visibility: 10 miles , 16 km
2021/09/24 01:52 KPPF 240152Z AUTO 14003KT 10SM CLR 18/09 A3004 RMK AO2 SLP168 T01830089
KGMJ - Grove, Oklahoma, USA
Distance from station: E 63mi, 101km
Updated: Thu, 23-Sep-2021 8:55pm CDT
Clear
Clear
 Wind from calm
Wind: Calm
Temperature: 61°F , 16°C
Dew Point: 52°F , 11°C
Humidity: 72%
Barometer: 30.07 inHg , 1018.3 hPa
Clouds: Clear
2021/09/24 01:55 KGMJ 240155Z AUTO 00000KT CLR 16/11 A3007 RMK AO2 PWINO
 
KPNC - Ponca City, Oklahoma, USA
Distance from station: W 69mi, 111km
Updated: Thu, 23-Sep-2021 8:53pm CDT
Clear
Clear
 Wind from SSE
Wind: SSE 12 mph , 19 km/h
Temperature: 73°F , 23°C
Dew Point: 45°F , 7°C
Humidity: 36%
Barometer: 30.00 inHg , 1015.9 hPa
Clouds: Clear
Visibility: 10 miles , 16 km
2021/09/24 01:53 KPNC 240153Z AUTO 15010KT 10SM CLR 23/07 A3000 RMK AO2 SLP151 T02280067
KCNU - Chanute, Kansas, USA
Distance from station: NNE 69mi, 112km
Updated: Thu, 23-Sep-2021 8:52pm CDT
Clear
Clear
 Wind from SE
Wind: SE 8 mph , 13 km/h
Temperature: 64°F , 18°C
Dew Point: 48°F , 9°C
Humidity: 56%
Barometer: 30.02 inHg , 1016.6 hPa
Clouds: Clear
Visibility: 10 miles , 16 km
2021/09/24 01:52 KCNU 240152Z AUTO 14007KT 10SM CLR 18/09 A3002 RMK AO2 SLP162 T01830089